sensor_id;sensor_type;location;lat;lon;timestamp;P1;durP1;ratioP1;P2;durP2;ratioP2
70049;SDS011;57391;51.306;22.680;2022-08-04T00:00:33;11.70;;;6.30;;
70049;SDS011;57391;51.306;22.680;2022-08-04T00:03:54;10.10;;;6.00;;
70049;SDS011;57391;51.306;22.680;2022-08-04T00:07:06;10.00;;;5.50;;
70049;SDS011;57391;51.306;22.680;2022-08-04T00:12:25;13.60;;;6.30;;
70049;SDS011;57391;51.306;22.680;2022-08-04T00:14:59;10.40;;;5.90;;
70049;SDS011;57391;51.306;22.680;2022-08-04T00:17:38;9.90;;;6.30;;
70049;SDS011;57391;51.306;22.680;2022-08-04T00:20:08;9.00;;;5.80;;
70049;SDS011;57391;51.306;22.680;2022-08-04T00:22:38;10.90;;;5.80;;
70049;SDS011;57391;51.306;22.680;2022-08-04T00:25:07;10.70;;;6.20;;
70049;SDS011;57391;51.306;22.680;2022-08-04T00:27:34;9.40;;;6.10;;
70049;SDS011;57391;51.306;22.680;2022-08-04T00:30:03;12.20;;;6.70;;
70049;SDS011;57391;51.306;22.680;2022-08-04T00:32:32;11.80;;;6.90;;
70049;SDS011;57391;51.306;22.680;2022-08-04T00:35:00;10.90;;;6.30;;
70049;SDS011;57391;51.306;22.680;2022-08-04T00:37:28;11.60;;;6.60;;
70049;SDS011;57391;51.306;22.680;2022-08-04T00:39:56;11.50;;;6.60;;
70049;SDS011;57391;51.306;22.680;2022-08-04T00:54:11;9.10;;;5.60;;
70049;SDS011;57391;51.306;22.680;2022-08-04T00:57:01;10.50;;;5.90;;
70049;SDS011;57391;51.306;22.680;2022-08-04T01:11:36;10.20;;;5.50;;
70049;SDS011;57391;51.306;22.680;2022-08-04T01:20:26;13.10;;;6.90;;
70049;SDS011;57391;51.306;22.680;2022-08-04T01:26:12;12.90;;;6.90;;
70049;SDS011;57391;51.306;22.680;2022-08-04T01:29:23;10.10;;;6.30;;
70049;SDS011;57391;51.306;22.680;2022-08-04T01:32:06;12.10;;;6.60;;
70049;SDS011;57391;51.306;22.680;2022-08-04T01:34:44;10.10;;;6.10;;
70049;SDS011;57391;51.306;22.680;2022-08-04T01:40:32;12.70;;;6.90;;
70049;SDS011;57391;51.306;22.680;2022-08-04T01:43:03;10.20;;;6.60;;
70049;SDS011;57391;51.306;22.680;2022-08-04T01:45:32;13.80;;;6.40;;
70049;SDS011;57391;51.306;22.680;2022-08-04T01:48:03;8.60;;;5.70;;
70049;SDS011;57391;51.306;22.680;2022-08-04T01:50:35;10.60;;;6.00;;
70049;SDS011;57391;51.306;22.680;2022-08-04T01:53:03;9.60;;;6.20;;
70049;SDS011;57391;51.306;22.680;2022-08-04T01:55:30;11.80;;;6.80;;
70049;SDS011;57391;51.306;22.680;2022-08-04T01:57:59;10.40;;;6.10;;
70049;SDS011;57391;51.306;22.680;2022-08-04T02:00:27;10.20;;;6.50;;
70049;SDS011;57391;51.306;22.680;2022-08-04T02:02:55;9.40;;;6.60;;
70049;SDS011;57391;51.306;22.680;2022-08-04T02:05:25;10.30;;;6.60;;
70049;SDS011;57391;51.306;22.680;2022-08-04T02:13:22;9.40;;;6.30;;
70049;SDS011;57391;51.306;22.680;2022-08-04T02:16:07;12.10;;;6.50;;
70049;SDS011;57391;51.306;22.680;2022-08-04T02:21:44;8.60;;;5.80;;
70049;SDS011;57391;51.306;22.680;2022-08-04T02:24:24;9.50;;;5.90;;
70049;SDS011;57391;51.306;22.680;2022-08-04T02:26:55;10.80;;;6.00;;
70049;SDS011;57391;51.306;22.680;2022-08-04T02:32:25;10.40;;;6.10;;
70049;SDS011;57391;51.306;22.680;2022-08-04T02:35:00;10.20;;;5.70;;
70049;SDS011;57391;51.306;22.680;2022-08-04T02:37:33;9.30;;;5.70;;
70049;SDS011;57391;51.306;22.680;2022-08-04T02:40:03;11.00;;;5.90;;
70049;SDS011;57391;51.306;22.680;2022-08-04T02:42:34;10.50;;;5.80;;
70049;SDS011;57391;51.306;22.680;2022-08-04T02:45:04;12.60;;;5.90;;
70049;SDS011;57391;51.306;22.680;2022-08-04T02:47:33;8.70;;;5.60;;
70049;SDS011;57391;51.306;22.680;2022-08-04T02:50:01;8.70;;;5.50;;
70049;SDS011;57391;51.306;22.680;2022-08-04T02:52:29;9.80;;;5.40;;
70049;SDS011;57391;51.306;22.680;2022-08-04T02:54:58;9.60;;;6.10;;
70049;SDS011;57391;51.306;22.680;2022-08-04T02:57:29;10.30;;;5.30;;
70049;SDS011;57391;51.306;22.680;2022-08-04T03:38:57;10.50;;;5.50;;
70049;SDS011;57391;51.306;22.680;2022-08-04T03:48:32;10.50;;;5.20;;
70049;SDS011;57391;51.306;22.680;2022-08-04T03:54:25;8.30;;;5.20;;
70049;SDS011;57391;51.306;22.680;2022-08-04T03:59:49;9.20;;;6.10;;
70049;SDS011;57391;51.306;22.680;2022-08-04T04:03:06;10.10;;;5.50;;
70049;SDS011;57391;51.306;22.680;2022-08-04T04:26:17;8.20;;;5.00;;
70049;SDS011;57391;51.306;22.680;2022-08-04T04:46:05;8.10;;;4.90;;
70049;SDS011;57391;51.306;22.680;2022-08-04T04:56:37;7.90;;;4.80;;
70049;SDS011;57391;51.306;22.680;2022-08-04T04:59:10;9.00;;;5.20;;
70049;SDS011;57391;51.306;22.680;2022-08-04T05:04:55;7.10;;;4.80;;
70049;SDS011;57391;51.306;22.680;2022-08-04T05:07:58;7.80;;;5.00;;
70049;SDS011;57391;51.306;22.680;2022-08-04T05:11:18;8.30;;;4.60;;
70049;SDS011;57391;51.306;22.680;2022-08-04T05:14:24;6.50;;;4.60;;
70049;SDS011;57391;51.306;22.680;2022-08-04T05:17:06;7.30;;;4.40;;
70049;SDS011;57391;51.306;22.680;2022-08-04T05:19:59;6.70;;;4.00;;
70049;SDS011;57391;51.306;22.680;2022-08-04T05:22:38;7.30;;;4.20;;
70049;SDS011;57391;51.306;22.680;2022-08-04T05:25:20;5.90;;;3.90;;
70049;SDS011;57391;51.306;22.680;2022-08-04T05:30:34;6.00;;;3.80;;
70049;SDS011;57391;51.306;22.680;2022-08-04T05:33:42;8.20;;;3.90;;
70049;SDS011;57391;51.306;22.680;2022-08-04T05:36:35;6.80;;;3.80;;
70049;SDS011;57391;51.306;22.680;2022-08-04T05:39:16;6.10;;;3.60;;
70049;SDS011;57391;51.306;22.680;2022-08-04T05:41:49;6.60;;;3.90;;
70049;SDS011;57391;51.306;22.680;2022-08-04T05:44:20;6.70;;;3.50;;
70049;SDS011;57391;51.306;22.680;2022-08-04T05:46:51;5.40;;;3.30;;
70049;SDS011;57391;51.306;22.680;2022-08-04T05:49:23;6.80;;;3.70;;
70049;SDS011;57391;51.306;22.680;2022-08-04T05:51:56;6.90;;;3.50;;
70049;SDS011;57391;51.306;22.680;2022-08-04T05:54:28;7.20;;;3.90;;
70049;SDS011;57391;51.306;22.680;2022-08-04T05:56:58;4.80;;;3.60;;
70049;SDS011;57391;51.306;22.680;2022-08-04T05:59:30;7.20;;;3.50;;
70049;SDS011;57391;51.306;22.680;2022-08-04T06:02:00;5.40;;;3.50;;
70049;SDS011;57391;51.306;22.680;2022-08-04T06:04:49;6.70;;;3.50;;
70049;SDS011;57391;51.306;22.680;2022-08-04T06:07:18;5.80;;;3.30;;
70049;SDS011;57391;51.306;22.680;2022-08-04T06:09:46;7.20;;;3.20;;
70049;SDS011;57391;51.306;22.680;2022-08-04T06:12:39;8.40;;;3.30;;
70049;SDS011;57391;51.306;22.680;2022-08-04T06:15:10;6.40;;;3.50;;
70049;SDS011;57391;51.306;22.680;2022-08-04T06:17:48;5.60;;;3.50;;
70049;SDS011;57391;51.306;22.680;2022-08-04T06:20:18;5.60;;;3.50;;
70049;SDS011;57391;51.306;22.680;2022-08-04T06:22:51;6.20;;;3.20;;
70049;SDS011;57391;51.306;22.680;2022-08-04T06:25:38;5.70;;;3.10;;
70049;SDS011;57391;51.306;22.680;2022-08-04T06:28:12;6.30;;;3.20;;
70049;SDS011;57391;51.306;22.680;2022-08-04T06:30:41;4.60;;;3.10;;
70049;SDS011;57391;51.306;22.680;2022-08-04T06:33:16;5.00;;;2.90;;
70049;SDS011;57391;51.306;22.680;2022-08-04T06:36:00;6.10;;;2.70;;
70049;SDS011;57391;51.306;22.680;2022-08-04T06:38:32;6.30;;;3.10;;
70049;SDS011;57391;51.306;22.680;2022-08-04T06:41:02;5.90;;;2.60;;
70049;SDS011;57391;51.306;22.680;2022-08-04T06:43:36;5.20;;;3.10;;
70049;SDS011;57391;51.306;22.680;2022-08-04T06:46:06;5.10;;;3.00;;
70049;SDS011;57391;51.306;22.680;2022-08-04T06:48:35;6.00;;;2.60;;
70049;SDS011;57391;51.306;22.680;2022-08-04T06:51:03;6.30;;;2.70;;
70049;SDS011;57391;51.306;22.680;2022-08-04T06:53:31;7.00;;;2.70;;
70049;SDS011;57391;51.306;22.680;2022-08-04T06:56:00;4.60;;;2.60;;
70049;SDS011;57391;51.306;22.680;2022-08-04T06:58:30;5.30;;;2.60;;
70049;SDS011;57391;51.306;22.680;2022-08-04T07:00:58;7.90;;;2.70;;
70049;SDS011;57391;51.306;22.680;2022-08-04T07:03:28;3.90;;;2.40;;
70049;SDS011;57391;51.306;22.680;2022-08-04T07:05:59;4.20;;;2.40;;
70049;SDS011;57391;51.306;22.680;2022-08-04T07:08:27;5.70;;;2.30;;
70049;SDS011;57391;51.306;22.680;2022-08-04T07:10:56;5.60;;;2.40;;
70049;SDS011;57391;51.306;22.680;2022-08-04T07:13:26;3.40;;;2.00;;
70049;SDS011;57391;51.306;22.680;2022-08-04T07:15:57;3.90;;;2.00;;
70049;SDS011;57391;51.306;22.680;2022-08-04T07:18:25;4.40;;;2.20;;
70049;SDS011;57391;51.306;22.680;2022-08-04T07:20:53;4.20;;;2.10;;
70049;SDS011;57391;51.306;22.680;2022-08-04T07:23:24;3.80;;;1.90;;
70049;SDS011;57391;51.306;22.680;2022-08-04T07:25:54;3.80;;;1.90;;
70049;SDS011;57391;51.306;22.680;2022-08-04T07:28:25;3.70;;;1.90;;
70049;SDS011;57391;51.306;22.680;2022-08-04T07:30:55;5.50;;;2.10;;
70049;SDS011;57391;51.306;22.680;2022-08-04T07:33:24;2.80;;;1.90;;
70049;SDS011;57391;51.306;22.680;2022-08-04T07:35:53;3.60;;;1.70;;
70049;SDS011;57391;51.306;22.680;2022-08-04T07:38:22;3.00;;;1.60;;
70049;SDS011;57391;51.306;22.680;2022-08-04T07:40:49;4.00;;;1.80;;
70049;SDS011;57391;51.306;22.680;2022-08-04T07:43:17;2.30;;;1.60;;
70049;SDS011;57391;51.306;22.680;2022-08-04T07:45:44;4.20;;;1.70;;
70049;SDS011;57391;51.306;22.680;2022-08-04T07:48:12;2.60;;;1.60;;
70049;SDS011;57391;51.306;22.680;2022-08-04T07:50:44;19.90;;;12.50;;
70049;SDS011;57391;51.306;22.680;2022-08-04T07:53:12;7.00;;;3.70;;
70049;SDS011;57391;51.306;22.680;2022-08-04T07:55:40;5.40;;;2.80;;
70049;SDS011;57391;51.306;22.680;2022-08-04T07:58:07;7.20;;;1.80;;
70049;SDS011;57391;51.306;22.680;2022-08-04T08:00:34;2.20;;;1.70;;
70049;SDS011;57391;51.306;22.680;2022-08-04T08:03:02;3.40;;;1.80;;
70049;SDS011;57391;51.306;22.680;2022-08-04T08:05:31;2.90;;;1.70;;
70049;SDS011;57391;51.306;22.680;2022-08-04T08:07:58;3.90;;;1.80;;
70049;SDS011;57391;51.306;22.680;2022-08-04T08:10:25;3.00;;;1.60;;
70049;SDS011;57391;51.306;22.680;2022-08-04T08:12:53;5.00;;;1.60;;
70049;SDS011;57391;51.306;22.680;2022-08-04T08:15:21;4.00;;;1.70;;
70049;SDS011;57391;51.306;22.680;2022-08-04T08:17:49;2.20;;;1.60;;
70049;SDS011;57391;51.306;22.680;2022-08-04T08:20:16;2.40;;;1.40;;
70049;SDS011;57391;51.306;22.680;2022-08-04T08:22:44;2.60;;;1.60;;
70049;SDS011;57391;51.306;22.680;2022-08-04T08:25:11;3.20;;;1.60;;
70049;SDS011;57391;51.306;22.680;2022-08-04T08:27:39;3.10;;;1.70;;
70049;SDS011;57391;51.306;22.680;2022-08-04T08:30:06;2.50;;;1.50;;
70049;SDS011;57391;51.306;22.680;2022-08-04T08:32:34;2.60;;;1.80;;
70049;SDS011;57391;51.306;22.680;2022-08-04T08:35:02;2.80;;;1.60;;
70049;SDS011;57391;51.306;22.680;2022-08-04T08:37:34;3.60;;;1.50;;
70049;SDS011;57391;51.306;22.680;2022-08-04T08:49:13;2.20;;;1.60;;
70049;SDS011;57391;51.306;22.680;2022-08-04T08:58:36;4.70;;;1.70;;
70049;SDS011;57391;51.306;22.680;2022-08-04T09:04:11;2.40;;;1.60;;
70049;SDS011;57391;51.306;22.680;2022-08-04T09:13:21;2.90;;;1.60;;
70049;SDS011;57391;51.306;22.680;2022-08-04T09:16:01;3.50;;;1.60;;
70049;SDS011;57391;51.306;22.680;2022-08-04T09:18:58;3.70;;;1.70;;
70049;SDS011;57391;51.306;22.680;2022-08-04T09:21:51;4.20;;;2.00;;
70049;SDS011;57391;51.306;22.680;2022-08-04T09:24:57;3.10;;;1.90;;
70049;SDS011;57391;51.306;22.680;2022-08-04T09:27:38;3.50;;;1.60;;
70049;SDS011;57391;51.306;22.680;2022-08-04T09:30:18;2.80;;;1.60;;
70049;SDS011;57391;51.306;22.680;2022-08-04T09:36:06;3.20;;;1.90;;
70049;SDS011;57391;51.306;22.680;2022-08-04T09:38:53;1.90;;;1.40;;
70049;SDS011;57391;51.306;22.680;2022-08-04T09:41:35;3.10;;;1.50;;
70049;SDS011;57391;51.306;22.680;2022-08-04T09:44:32;3.30;;;1.90;;
70049;SDS011;57391;51.306;22.680;2022-08-04T09:47:45;2.10;;;1.50;;
70049;SDS011;57391;51.306;22.680;2022-08-04T09:50:25;4.30;;;1.80;;
70049;SDS011;57391;51.306;22.680;2022-08-04T09:56:02;2.90;;;1.50;;
70049;SDS011;57391;51.306;22.680;2022-08-04T10:01:37;2.70;;;1.60;;
70049;SDS011;57391;51.306;22.680;2022-08-04T10:04:08;2.80;;;1.80;;
70049;SDS011;57391;51.306;22.680;2022-08-04T10:19:26;2.40;;;1.80;;
70049;SDS011;57391;51.306;22.680;2022-08-04T10:22:05;2.70;;;1.60;;
70049;SDS011;57391;51.306;22.680;2022-08-04T10:27:49;4.30;;;2.00;;
70049;SDS011;57391;51.306;22.680;2022-08-04T10:30:20;2.70;;;1.60;;
70049;SDS011;57391;51.306;22.680;2022-08-04T10:35:37;4.60;;;1.80;;
70049;SDS011;57391;51.306;22.680;2022-08-04T10:38:31;6.50;;;1.80;;
70049;SDS011;57391;51.306;22.680;2022-08-04T10:46:40;5.40;;;1.90;;
70049;SDS011;57391;51.306;22.680;2022-08-04T10:49:21;3.90;;;1.90;;
70049;SDS011;57391;51.306;22.680;2022-08-04T10:52:13;3.60;;;1.90;;
70049;SDS011;57391;51.306;22.680;2022-08-04T10:55:04;3.90;;;1.70;;
70049;SDS011;57391;51.306;22.680;2022-08-04T10:57:41;3.80;;;2.00;;
70049;SDS011;57391;51.306;22.680;2022-08-04T11:00:23;4.60;;;1.90;;
70049;SDS011;57391;51.306;22.680;2022-08-04T11:06:08;5.20;;;1.90;;
70049;SDS011;57391;51.306;22.680;2022-08-04T11:08:38;3.50;;;2.00;;
70049;SDS011;57391;51.306;22.680;2022-08-04T11:11:21;3.20;;;1.90;;
70049;SDS011;57391;51.306;22.680;2022-08-04T11:14:02;5.00;;;1.70;;
70049;SDS011;57391;51.306;22.680;2022-08-04T11:16:38;2.40;;;1.90;;
70049;SDS011;57391;51.306;22.680;2022-08-04T11:21:55;4.20;;;2.00;;
70049;SDS011;57391;51.306;22.680;2022-08-04T11:24:49;4.40;;;1.70;;
70049;SDS011;57391;51.306;22.680;2022-08-04T11:30:16;3.00;;;1.80;;
70049;SDS011;57391;51.306;22.680;2022-08-04T11:45:17;4.20;;;2.00;;
70049;SDS011;57391;51.306;22.680;2022-08-04T11:47:56;4.50;;;2.00;;
70049;SDS011;57391;51.306;22.680;2022-08-04T11:50:53;3.30;;;2.00;;
70049;SDS011;57391;51.306;22.680;2022-08-04T11:53:25;3.80;;;2.10;;
70049;SDS011;57391;51.306;22.680;2022-08-04T11:55:59;3.00;;;2.00;;
70049;SDS011;57391;51.306;22.680;2022-08-04T11:58:28;5.30;;;1.80;;
70049;SDS011;57391;51.306;22.680;2022-08-04T12:01:07;3.30;;;2.00;;
70049;SDS011;57391;51.306;22.680;2022-08-04T12:04:06;3.10;;;1.80;;
70049;SDS011;57391;51.306;22.680;2022-08-04T12:06:55;2.70;;;1.80;;
70049;SDS011;57391;51.306;22.680;2022-08-04T12:12:47;2.50;;;1.80;;
70049;SDS011;57391;51.306;22.680;2022-08-04T12:19:00;2.70;;;1.80;;
70049;SDS011;57391;51.306;22.680;2022-08-04T12:21:41;4.60;;;1.80;;
70049;SDS011;57391;51.306;22.680;2022-08-04T12:24:17;4.10;;;1.80;;
70049;SDS011;57391;51.306;22.680;2022-08-04T12:26:52;2.70;;;1.90;;
70049;SDS011;57391;51.306;22.680;2022-08-04T12:29:25;2.80;;;1.80;;
70049;SDS011;57391;51.306;22.680;2022-08-04T12:32:05;3.30;;;1.90;;
70049;SDS011;57391;51.306;22.680;2022-08-04T12:35:06;3.80;;;1.90;;
70049;SDS011;57391;51.306;22.680;2022-08-04T12:37:50;4.00;;;2.00;;
70049;SDS011;57391;51.306;22.680;2022-08-04T12:40:32;3.40;;;1.90;;
70049;SDS011;57391;51.306;22.680;2022-08-04T12:46:25;6.40;;;2.10;;
70049;SDS011;57391;51.306;22.680;2022-08-04T12:49:00;5.80;;;2.30;;
70049;SDS011;57391;51.306;22.680;2022-08-04T12:51:36;6.40;;;2.10;;
70049;SDS011;57391;51.306;22.680;2022-08-04T12:54:07;3.40;;;2.10;;
70049;SDS011;57391;51.306;22.680;2022-08-04T12:56:36;3.10;;;1.90;;
70049;SDS011;57391;51.306;22.680;2022-08-04T12:59:07;3.80;;;1.80;;
70049;SDS011;57391;51.306;22.680;2022-08-04T13:01:38;4.60;;;2.00;;
70049;SDS011;57391;51.306;22.680;2022-08-04T13:04:13;5.00;;;1.80;;
70049;SDS011;57391;51.306;22.680;2022-08-04T13:07:04;6.30;;;2.10;;
70049;SDS011;57391;51.306;22.680;2022-08-04T13:09:36;2.60;;;1.70;;
70049;SDS011;57391;51.306;22.680;2022-08-04T13:12:11;3.50;;;2.20;;
70049;SDS011;57391;51.306;22.680;2022-08-04T13:14:41;3.80;;;1.90;;
70049;SDS011;57391;51.306;22.680;2022-08-04T13:17:10;5.20;;;2.00;;
70049;SDS011;57391;51.306;22.680;2022-08-04T13:19:39;4.10;;;1.90;;
70049;SDS011;57391;51.306;22.680;2022-08-04T13:22:13;7.20;;;2.20;;
70049;SDS011;57391;51.306;22.680;2022-08-04T13:24:51;3.70;;;1.90;;
70049;SDS011;57391;51.306;22.680;2022-08-04T13:27:21;3.30;;;2.10;;
70049;SDS011;57391;51.306;22.680;2022-08-04T13:29:55;3.80;;;2.00;;
70049;SDS011;57391;51.306;22.680;2022-08-04T13:32:24;3.40;;;1.90;;
70049;SDS011;57391;51.306;22.680;2022-08-04T13:34:54;3.40;;;2.00;;
70049;SDS011;57391;51.306;22.680;2022-08-04T13:37:32;3.70;;;1.90;;
70049;SDS011;57391;51.306;22.680;2022-08-04T13:40:08;5.00;;;2.10;;
70049;SDS011;57391;51.306;22.680;2022-08-04T13:42:39;5.40;;;2.10;;
70049;SDS011;57391;51.306;22.680;2022-08-04T13:45:13;3.50;;;2.00;;
70049;SDS011;57391;51.306;22.680;2022-08-04T13:47:48;2.90;;;2.10;;
70049;SDS011;57391;51.306;22.680;2022-08-04T13:50:21;3.70;;;1.90;;
70049;SDS011;57391;51.306;22.680;2022-08-04T13:52:58;3.90;;;2.10;;
70049;SDS011;57391;51.306;22.680;2022-08-04T13:55:33;5.90;;;2.30;;
70049;SDS011;57391;51.306;22.680;2022-08-04T14:03:11;3.20;;;2.00;;
70049;SDS011;57391;51.306;22.680;2022-08-04T14:05:41;5.40;;;2.10;;
70049;SDS011;57391;51.306;22.680;2022-08-04T14:08:24;3.50;;;2.10;;
70049;SDS011;57391;51.306;22.680;2022-08-04T14:10:56;5.00;;;2.10;;
70049;SDS011;57391;51.306;22.680;2022-08-04T14:13:32;2.90;;;1.90;;
70049;SDS011;57391;51.306;22.680;2022-08-04T14:16:00;3.40;;;2.00;;
70049;SDS011;57391;51.306;22.680;2022-08-04T14:18:33;4.80;;;2.00;;
70049;SDS011;57391;51.306;22.680;2022-08-04T14:21:06;3.20;;;1.90;;
70049;SDS011;57391;51.306;22.680;2022-08-04T14:26:31;6.60;;;2.00;;
70049;SDS011;57391;51.306;22.680;2022-08-04T14:29:14;4.40;;;2.10;;
70049;SDS011;57391;51.306;22.680;2022-08-04T14:31:47;4.50;;;2.00;;
70049;SDS011;57391;51.306;22.680;2022-08-04T14:34:29;3.60;;;2.10;;
70049;SDS011;57391;51.306;22.680;2022-08-04T14:37:07;3.80;;;2.00;;
70049;SDS011;57391;51.306;22.680;2022-08-04T14:39:43;4.10;;;1.90;;
70049;SDS011;57391;51.306;22.680;2022-08-04T14:42:13;3.40;;;1.90;;
70049;SDS011;57391;51.306;22.680;2022-08-04T14:44:54;3.30;;;1.90;;
70049;SDS011;57391;51.306;22.680;2022-08-04T14:47:41;4.00;;;2.30;;
70049;SDS011;57391;51.306;22.680;2022-08-04T14:50:13;4.90;;;1.60;;
70049;SDS011;57391;51.306;22.680;2022-08-04T14:52:41;3.80;;;1.80;;
70049;SDS011;57391;51.306;22.680;2022-08-04T14:55:23;3.50;;;1.90;;
70049;SDS011;57391;51.306;22.680;2022-08-04T14:57:56;4.60;;;2.10;;
70049;SDS011;57391;51.306;22.680;2022-08-04T15:00:32;4.70;;;1.90;;
70049;SDS011;57391;51.306;22.680;2022-08-04T15:03:09;3.50;;;1.90;;
70049;SDS011;57391;51.306;22.680;2022-08-04T15:05:39;4.80;;;1.80;;
70049;SDS011;57391;51.306;22.680;2022-08-04T15:08:21;4.30;;;1.80;;
70049;SDS011;57391;51.306;22.680;2022-08-04T15:10:48;4.80;;;1.90;;
70049;SDS011;57391;51.306;22.680;2022-08-04T15:13:16;4.10;;;1.70;;
70049;SDS011;57391;51.306;22.680;2022-08-04T15:15:43;2.60;;;1.70;;
70049;SDS011;57391;51.306;22.680;2022-08-04T15:18:12;2.80;;;1.60;;
70049;SDS011;57391;51.306;22.680;2022-08-04T15:20:39;3.90;;;1.60;;
70049;SDS011;57391;51.306;22.680;2022-08-04T15:23:08;2.50;;;1.70;;
70049;SDS011;57391;51.306;22.680;2022-08-04T15:25:38;5.70;;;2.00;;
70049;SDS011;57391;51.306;22.680;2022-08-04T15:28:17;4.60;;;1.90;;
70049;SDS011;57391;51.306;22.680;2022-08-04T15:30:49;3.40;;;1.80;;
70049;SDS011;57391;51.306;22.680;2022-08-04T15:33:20;5.70;;;2.00;;
70049;SDS011;57391;51.306;22.680;2022-08-04T15:36:12;5.70;;;1.90;;
70049;SDS011;57391;51.306;22.680;2022-08-04T15:39:10;2.50;;;1.80;;
70049;SDS011;57391;51.306;22.680;2022-08-04T15:47:40;3.30;;;1.90;;
70049;SDS011;57391;51.306;22.680;2022-08-04T15:50:10;4.50;;;2.00;;
70049;SDS011;57391;51.306;22.680;2022-08-04T15:52:59;3.90;;;1.80;;
70049;SDS011;57391;51.306;22.680;2022-08-04T15:55:41;3.30;;;2.00;;
70049;SDS011;57391;51.306;22.680;2022-08-04T15:58:11;3.60;;;1.90;;
70049;SDS011;57391;51.306;22.680;2022-08-04T16:21:46;3.90;;;1.90;;
70049;SDS011;57391;51.306;22.680;2022-08-04T16:24:26;4.40;;;2.30;;
70049;SDS011;57391;51.306;22.680;2022-08-04T16:27:04;3.60;;;2.00;;
70049;SDS011;57391;51.306;22.680;2022-08-04T16:29:38;3.00;;;1.90;;
70049;SDS011;57391;51.306;22.680;2022-08-04T16:32:18;3.30;;;2.10;;
70049;SDS011;57391;51.306;22.680;2022-08-04T16:35:02;3.90;;;2.00;;
70049;SDS011;57391;51.306;22.680;2022-08-04T16:37:35;3.30;;;2.00;;
70049;SDS011;57391;51.306;22.680;2022-08-04T16:40:29;2.80;;;2.10;;
70049;SDS011;57391;51.306;22.680;2022-08-04T16:43:17;3.60;;;2.10;;
70049;SDS011;57391;51.306;22.680;2022-08-04T16:45:53;4.80;;;2.10;;
70049;SDS011;57391;51.306;22.680;2022-08-04T16:51:30;4.80;;;2.30;;
70049;SDS011;57391;51.306;22.680;2022-08-04T16:54:02;6.60;;;2.30;;
70049;SDS011;57391;51.306;22.680;2022-08-04T16:56:31;3.00;;;2.20;;
70049;SDS011;57391;51.306;22.680;2022-08-04T16:59:08;2.90;;;2.00;;
70049;SDS011;57391;51.306;22.680;2022-08-04T17:01:44;3.80;;;2.20;;
70049;SDS011;57391;51.306;22.680;2022-08-04T17:04:13;5.40;;;2.10;;
70049;SDS011;57391;51.306;22.680;2022-08-04T17:06:42;4.20;;;2.00;;
70049;SDS011;57391;51.306;22.680;2022-08-04T17:09:16;5.30;;;2.20;;
70049;SDS011;57391;51.306;22.680;2022-08-04T17:11:46;3.70;;;2.30;;
70049;SDS011;57391;51.306;22.680;2022-08-04T17:14:23;4.90;;;2.30;;
70049;SDS011;57391;51.306;22.680;2022-08-04T17:16:57;6.30;;;2.10;;
70049;SDS011;57391;51.306;22.680;2022-08-04T17:19:26;2.80;;;1.90;;
70049;SDS011;57391;51.306;22.680;2022-08-04T17:22:00;7.30;;;2.30;;
70049;SDS011;57391;51.306;22.680;2022-08-04T17:24:35;4.90;;;2.10;;
70049;SDS011;57391;51.306;22.680;2022-08-04T17:27:04;6.00;;;2.30;;
70049;SDS011;57391;51.306;22.680;2022-08-04T17:29:34;8.20;;;2.10;;
70049;SDS011;57391;51.306;22.680;2022-08-04T17:32:03;4.70;;;2.30;;
70049;SDS011;57391;51.306;22.680;2022-08-04T17:34:30;4.70;;;2.40;;
70049;SDS011;57391;51.306;22.680;2022-08-04T17:37:01;6.40;;;2.60;;
70049;SDS011;57391;51.306;22.680;2022-08-04T17:39:29;6.30;;;2.40;;
70049;SDS011;57391;51.306;22.680;2022-08-04T17:41:59;10.60;;;2.50;;
70049;SDS011;57391;51.306;22.680;2022-08-04T17:44:37;13.60;;;2.50;;
70049;SDS011;57391;51.306;22.680;2022-08-04T17:47:15;7.20;;;2.30;;
70049;SDS011;57391;51.306;22.680;2022-08-04T17:49:46;4.90;;;2.30;;
70049;SDS011;57391;51.306;22.680;2022-08-04T17:52:20;5.60;;;2.20;;
70049;SDS011;57391;51.306;22.680;2022-08-04T17:54:57;6.90;;;2.30;;
70049;SDS011;57391;51.306;22.680;2022-08-04T17:57:27;5.20;;;2.30;;
70049;SDS011;57391;51.306;22.680;2022-08-04T17:59:57;10.40;;;2.50;;
70049;SDS011;57391;51.306;22.680;2022-08-04T18:02:26;17.50;;;3.00;;
70049;SDS011;57391;51.306;22.680;2022-08-04T18:04:56;14.70;;;3.30;;
70049;SDS011;57391;51.306;22.680;2022-08-04T18:07:33;9.30;;;3.00;;
70049;SDS011;57391;51.306;22.680;2022-08-04T18:10:06;6.70;;;2.60;;
70049;SDS011;57391;51.306;22.680;2022-08-04T18:12:35;5.80;;;2.60;;
70049;SDS011;57391;51.306;22.680;2022-08-04T18:15:05;5.00;;;2.50;;
70049;SDS011;57391;51.306;22.680;2022-08-04T18:17:54;7.30;;;2.60;;
70049;SDS011;57391;51.306;22.680;2022-08-04T18:20:24;5.90;;;2.40;;
70049;SDS011;57391;51.306;22.680;2022-08-04T18:22:53;4.60;;;2.70;;
70049;SDS011;57391;51.306;22.680;2022-08-04T18:25:21;27.70;;;3.60;;
70049;SDS011;57391;51.306;22.680;2022-08-04T18:27:53;21.10;;;3.10;;
70049;SDS011;57391;51.306;22.680;2022-08-04T18:30:23;8.40;;;3.20;;
70049;SDS011;57391;51.306;22.680;2022-08-04T18:32:52;12.60;;;4.70;;
70049;SDS011;57391;51.306;22.680;2022-08-04T18:35:21;13.80;;;8.00;;
70049;SDS011;57391;51.306;22.680;2022-08-04T18:37:48;55.30;;;36.10;;
70049;SDS011;57391;51.306;22.680;2022-08-04T18:40:19;32.60;;;21.90;;
70049;SDS011;57391;51.306;22.680;2022-08-04T18:42:47;11.00;;;6.50;;
70049;SDS011;57391;51.306;22.680;2022-08-04T18:45:14;10.60;;;7.00;;
70049;SDS011;57391;51.306;22.680;2022-08-04T18:47:41;20.90;;;13.00;;
70049;SDS011;57391;51.306;22.680;2022-08-04T18:50:09;22.30;;;16.90;;
70049;SDS011;57391;51.306;22.680;2022-08-04T18:52:36;18.40;;;12.90;;
70049;SDS011;57391;51.306;22.680;2022-08-04T18:55:04;18.80;;;12.60;;
70049;SDS011;57391;51.306;22.680;2022-08-04T18:57:32;14.40;;;8.10;;
70049;SDS011;57391;51.306;22.680;2022-08-04T18:59:59;13.40;;;6.90;;
70049;SDS011;57391;51.306;22.680;2022-08-04T19:02:26;12.50;;;7.80;;
70049;SDS011;57391;51.306;22.680;2022-08-04T19:04:53;16.50;;;6.70;;
70049;SDS011;57391;51.306;22.680;2022-08-04T19:07:21;12.10;;;6.80;;
70049;SDS011;57391;51.306;22.680;2022-08-04T19:09:48;12.50;;;8.00;;
70049;SDS011;57391;51.306;22.680;2022-08-04T19:12:16;11.90;;;5.20;;
70049;SDS011;57391;51.306;22.680;2022-08-04T19:14:43;11.90;;;7.20;;
70049;SDS011;57391;51.306;22.680;2022-08-04T19:17:11;17.30;;;9.00;;
70049;SDS011;57391;51.306;22.680;2022-08-04T19:19:38;12.90;;;7.70;;
70049;SDS011;57391;51.306;22.680;2022-08-04T19:22:05;11.70;;;7.50;;
70049;SDS011;57391;51.306;22.680;2022-08-04T19:24:33;15.10;;;9.50;;
70049;SDS011;57391;51.306;22.680;2022-08-04T19:27:02;18.30;;;10.50;;
70049;SDS011;57391;51.306;22.680;2022-08-04T19:29:32;18.50;;;10.20;;
70049;SDS011;57391;51.306;22.680;2022-08-04T19:32:02;19.80;;;10.00;;
70049;SDS011;57391;51.306;22.680;2022-08-04T19:34:31;18.80;;;8.80;;
70049;SDS011;57391;51.306;22.680;2022-08-04T19:36:59;21.40;;;12.00;;
70049;SDS011;57391;51.306;22.680;2022-08-04T19:39:26;21.60;;;12.20;;
70049;SDS011;57391;51.306;22.680;2022-08-04T19:41:55;31.20;;;20.90;;
70049;SDS011;57391;51.306;22.680;2022-08-04T19:44:23;24.70;;;14.70;;
70049;SDS011;57391;51.306;22.680;2022-08-04T19:46:50;16.10;;;9.50;;
70049;SDS011;57391;51.306;22.680;2022-08-04T19:49:18;26.60;;;17.90;;
70049;SDS011;57391;51.306;22.680;2022-08-04T19:51:45;23.90;;;15.50;;
70049;SDS011;57391;51.306;22.680;2022-08-04T19:54:16;18.70;;;10.50;;
70049;SDS011;57391;51.306;22.680;2022-08-04T19:56:44;20.00;;;9.30;;